Centerville, Ohio
Current Conditions -  °F | °C
As of 7:53 PM on Tuesday 21 Oct 2014 (Local Time) from KMGY Reporting Station
Overcast Overcast  
Wind Chill: 47°   Ceiling: 3900
Heat Index: 49°   Visibility: 10mi
Dew Point: 46°   Wind: 6mph
Humidity: 90%   Direction: 40°NE
Pressure: 30.12"   Gusts: NA
Location:  39.6468°N, 84.1683°W
Report Text: KMGY 212353Z AUTO 04005KT 10SM FEW014 SCT019 OVC039 09/08 A3012 RMK AO2 SLP202 60000 T00940078 10117 20094 53011
Loading
Personal Weather Stations






























Interactive Weather Map
Tropical Storm Tracking
New forecast layout! Learn more

10-Day Weather Forecast

Advertisements
Track Severe Weather on mobile